Terminal Aerodrome Forecast
Issued by NWS

Home | Current Version | Previous Version | Text Only | Print | Product List | Glossary On
Versions: 1 2 3 4 5 6 7 8 9 10 11 12 13 14 15
185
FTUS46 KSGX 231732
TAFONT
TAF
KONT 231732Z 2318/2424 VRB06KT 5SM HZ FEW200
     FM232000 26012KT P6SM FEW200
     FM240600 26006KT P6SM FEW010 SCT150
     FM241200 VRB05KT 5SM HZ SCT006 SCT150
     FM241800 VRB06KT P6SM FEW006 SCT150
     FM242000 26012KT P6SM SCT150=

USA.gov is the U.S. government's official web portal to all federal, state and local government web resources and services.